createdAt,value
2023-03-28T00:04:05.367Z,1.70
2023-03-28T00:16:05.951Z,1.90
2023-03-28T00:28:06.241Z,1.90
2023-03-28T00:40:11.810Z,2.00
2023-03-28T00:52:07.144Z,2.00
2023-03-28T01:04:07.595Z,1.80
2023-03-28T01:16:08.210Z,2.00
2023-03-28T01:28:10.727Z,2.40
2023-03-28T01:40:08.940Z,2.10
2023-03-28T01:52:09.401Z,2.20
2023-03-28T02:04:20.485Z,2.20
2023-03-28T02:16:10.373Z,2.40
2023-03-28T02:28:10.772Z,2.10
2023-03-28T02:40:11.270Z,2.10
2023-03-28T02:52:11.684Z,2.20
2023-03-28T03:04:12.168Z,2.50
2023-03-28T03:16:12.653Z,2.80
2023-03-28T03:28:13.074Z,3.30
2023-03-28T03:40:13.494Z,3.30
2023-03-28T03:52:13.936Z,3.60
2023-03-28T04:04:14.430Z,3.60
2023-03-28T04:16:14.864Z,3.60
2023-03-28T04:28:15.283Z,2.70
2023-03-28T04:40:15.792Z,2.00
2023-03-28T04:52:16.156Z,1.50
2023-03-28T05:04:16.598Z,1.40
2023-03-28T05:16:17.106Z,2.80
2023-03-28T05:28:17.534Z,2.10
2023-03-28T05:40:17.997Z,2.20
2023-03-28T05:52:18.841Z,1.70
2023-03-28T06:04:18.902Z,1.30
2023-03-28T06:16:19.418Z,1.60
2023-03-28T06:28:19.811Z,1.60
2023-03-28T06:40:20.227Z,1.30
2023-03-28T06:52:20.683Z,2.30
2023-03-28T07:04:21.315Z,2.20
2023-03-28T07:16:21.627Z,2.00
2023-03-28T07:28:22.049Z,1.30
2023-03-28T07:40:22.489Z,1.30
2023-03-28T07:52:22.993Z,2.70
2023-03-28T08:04:23.427Z,1.80
2023-03-28T08:16:24.011Z,1.60
2023-03-28T08:28:24.320Z,1.30
2023-03-28T08:40:24.826Z,1.20
2023-03-28T08:52:25.235Z,1.10
2023-03-28T09:04:25.735Z,1.40
2023-03-28T09:16:26.139Z,1.30
2023-03-28T09:28:26.572Z,1.40
2023-03-28T09:40:27.017Z,1.20
2023-03-28T09:52:27.443Z,0.90
2023-03-28T10:04:27.986Z,1.10
2023-03-28T10:16:28.474Z,1.00
2023-03-28T10:28:28.842Z,0.90
2023-03-28T10:40:29.303Z,1.10
2023-03-28T10:52:29.731Z,0.90
2023-03-28T11:04:30.229Z,1.10
2023-03-28T11:16:30.645Z,1.70
2023-03-28T11:28:31.066Z,1.80
2023-03-28T11:40:31.554Z,2.60
2023-03-28T11:52:33.753Z,3.30
2023-03-28T12:04:32.568Z,2.40
2023-03-28T12:16:32.925Z,1.50
2023-03-28T12:28:33.355Z,1.60
2023-03-28T12:40:33.854Z,2.20
2023-03-28T12:52:34.281Z,2.40
2023-03-28T13:04:34.785Z,2.60
2023-03-28T13:16:35.160Z,2.50
2023-03-28T13:28:35.617Z,2.00
2023-03-28T13:40:36.094Z,3.50
2023-03-28T13:52:36.518Z,2.40
2023-03-28T14:04:36.972Z,2.10
2023-03-28T14:16:37.608Z,2.10
2023-03-28T14:28:37.948Z,2.90
2023-03-28T14:40:38.318Z,2.20
2023-03-28T14:52:38.846Z,2.40
2023-03-28T15:04:39.402Z,2.90
2023-03-28T15:16:39.703Z,3.00
2023-03-28T15:28:40.169Z,2.80
2023-03-28T15:40:40.601Z,1.90
2023-03-28T15:52:41.064Z,2.20
2023-03-28T16:04:41.501Z,2.70
2023-03-28T16:16:42.001Z,3.10
2023-03-28T16:28:42.421Z,2.50
2023-03-28T16:40:42.883Z,3.30
2023-03-28T16:52:43.378Z,3.50
2023-03-28T17:04:43.773Z,5.40
2023-03-28T17:16:44.246Z,2.90
2023-03-28T17:28:44.700Z,2.50
2023-03-28T17:40:45.099Z,6.50
2023-03-28T17:52:45.597Z,8.90
2023-03-28T18:04:46.020Z,5.70
2023-03-28T18:16:46.544Z,6.90
2023-03-28T18:28:46.951Z,8.30
2023-03-28T18:40:47.375Z,9.60
2023-03-28T18:52:47.849Z,7.10
2023-03-28T19:04:48.318Z,7.70
2023-03-28T19:16:48.838Z,7.20
2023-03-28T19:28:49.199Z,7.00
2023-03-28T19:40:49.660Z,7.10
2023-03-28T19:52:50.123Z,6.10
2023-03-28T20:04:50.583Z,6.30
2023-03-28T20:16:50.969Z,9.40
2023-03-28T20:28:51.427Z,8.70
2023-03-28T20:40:51.927Z,11.40
2023-03-28T20:52:52.324Z,8.20
2023-03-28T21:04:52.803Z,8.60
2023-03-28T21:16:53.317Z,9.50
2023-03-28T21:29:01.434Z,8.30
2023-03-28T21:40:56.868Z,19.20
2023-03-28T21:52:54.614Z,40.50
2023-03-28T22:04:56.790Z,7.70
2023-03-28T22:16:55.536Z,12.30
2023-03-28T22:28:55.946Z,12.30
2023-03-28T22:40:56.388Z,10.20
2023-03-28T22:53:01.183Z,6.60
2023-03-28T23:04:57.362Z,9.10
2023-03-28T23:28:58.255Z,8.20
2023-03-28T23:40:58.690Z,7.90
2023-03-28T23:52:59.126Z,9.20
